Weather at Paulatuk (Nora Aliqatchialuk Ruben) Airport

Public forecast

Using degrees Celsius for public forecast. Weather courtesy of forecast.io.

Current aviation weather report (METAR) for Paulatuk (Nora Aliqatchialuk Ruben) Airport

Retrieved 2021/04/12 13:00 UTC (17 minutes ago):

CYPC 121300Z 18024KT 15SM DRSN FEW045 M19/M24 A3024 RMK SC1 SC TR IOCNL BLSN SNW CVR/ TRACE LOOSE SLP241

Aviation forecast (TAF) for Paulatuk (Nora Aliqatchialuk Ruben) Airport

Forecast is more than 12 hours old.

Retrieved 2021/04/11 15:00 UTC (22 hours ago):

TAF CYPC 111438Z 1115/1118 21010KT P6SM FEW160 BECMG 1115/1117 21015G25KT RMK NXT FCST WILL BE ISSUED AT 121445Z